TFM - Tactical Decision Aid
ID: Runway Winds: CIG/VIS Threshold:

KDEN - Denver Intl, CO, US

Updated at: 1803 UTC 23 Apr 2019
Latest TAF at: 1740 UTC 23 Apr 2019

TAF Board

Time1753Z 23/19Z 23/20Z 23/21Z 23/22Z 23/23Z 24/00Z 24/01Z 24/02Z 24/03Z 24/04Z 24/05Z 24/06Z 24/07Z>>
Type OBS PRVL PRVL PRVL PRVL PRVL PRVL PRVL PRVL PRVL PRVL PRVL PRVL PRVL
VIS 10 >6 >6 >6 >6 >6 >6 >6 >6 >6 >6 >6 >6 >6
CIG -- -- -- -- -- -- -- -- -- -- -- -- -- --
Cover SCT SCT SCT SCT SCT SCT SCT SCT SKC SKC SKC SKC SKC SKC
FltCat VFR VFR VFR VFR VFR VFR VFR VFR VFR VFR VFR VFR VFR VFR
WX -- -- -- -- -- -- -- -- -- -- -- -- -- --
WDir VRB 220 70 70 70 70 70 70 200 200 200 200 200 200
WSpd 0 7 8 8 8 8 8 8 10 10 10 10 10 10
WGst -- -- -- -- -- -- -- -- -- -- -- -- -- --

TDA Impact Legend

  None Marginal Slight Moderate High
Visibility (sm) >5 3≤X≤5 1≤X<3 0.5≤X<1 <0.5
Ceiling (100 ft) >30 10≤X≤30 4≤X<10 2≤X<4 <2
Wind Speed (kt) <15 15≤X<25 25≤X<30 ≥30
Wind Gust (kt) <15 15≤X<25 25≤X<35 ≥35
Weather No Wx Reported VCTS -TS,-FZRA TS,FZRA +TS,+FZRA
TAF
KDEN 231740Z 2318/2424 22007KT P6SM SCT030 SCT045
  FM232000 07008KT P6SM SCT070
  FM240200 20010KT P6SM SKC
  FM240900 24008KT P6SM SKC
  FM241800 02007KT P6SM FEW100


METAR
KDEN 231753Z 00000KT 10SM SCT030 SCT045 12/04 A3013 RMK AO2 SLP172 T01220039 10122 20056 58010
KDEN 231653Z 21006KT 10SM BKN030 BKN045 11/04 A3015 RMK AO2 SLP184 T01110044
KDEN 231553Z 23009KT 10SM FEW020 BKN030 BKN045 10/04 A3016 RMK AO2 SLP189 T01000039
KDEN 231453Z 17006KT 10SM BKN030 BKN045 09/04 A3017 RMK AO2 SLP193 T00890044 58004

Radar Display
Forecast Discussion